KLRU/LRU METAR and TAF weather

Enter ICAO airport designator
Station Type Date Time Source
KLRU METAR 2021/07/30 08:15 UTC NOAA

KLRU 300815Z AUTO 00000KT 7SM CLR 19/11 A3023 RMK AO2 T01910114


Station Type Date Time Source
KLRU Decoded METAR 2021/07/30 08:15 UTC NOAA

Las Cruces, Las Cruces International Airport, NM, United States (KLRU) 32-17-22N 106-55-19W
Jul 30, 2021 - 04:15 AM EDT / 2021.07.30 0815 UTC
Wind: Calm:0
Visibility: 7 mile(s):0
Sky conditions: clear
Temperature: 66.4 F (19.1 C)
Dew Point: 52.5 F (11.4 C)
Relative Humidity: 60%
Pressure (altimeter): 30.23 in. Hg (1023 hPa)
ob: KLRU 300815Z AUTO 00000KT 7SM CLR 19/11 A3023 RMK AO2 T01910114
cycle: 8

Station Type Date Time Source
KLRU TAF 2021/07/30 06:46 UTC NOAA

TAF KLRU 300543Z 3006/3106 21004KT P6SM SKC
FM300800 12005KT P6SM BKN250
FM301800 13009G16KT P6SM BKN250
FM310400 10009KT P6SM BKN100

Example: see airport list